Time;durP1;ratioP1;P1;durP2;ratioP2;P2;SDS_P1;SDS_P2;PMS_P1;PMS_P2;Temp;Humidity;BMP_temperature;BMP_pressure;BME280_temperature;BME280_humidity;BME280_pressure;Samples;Min_cycle;Max_cycle;Signal;HPM_P1;HPM_P2
2021/11/14 00:00:18;;;;;;;33.17;21.10;;;8.40;99.90;;;;;;5089208;28;20032;-45
2021/11/14 00:02:44;;;;;;;32.83;19.85;;;8.40;99.90;;;;;;5090207;28;20012;-47
2021/11/14 00:05:09;;;;;;;32.45;21.05;;;8.30;99.90;;;;;;5094953;28;20197;-45
2021/11/14 00:07:35;;;;;;;32.80;20.17;;;8.40;99.90;;;;;;5101118;28;20055;-45
2021/11/14 00:10:01;;;;;;;30.10;19.50;;;8.30;99.90;;;;;;5110305;28;20051;-45
2021/11/14 00:12:27;;;;;;;29.38;19.33;;;8.40;99.90;;;;;;5110273;28;20257;-45
2021/11/14 00:14:52;;;;;;;38.20;22.05;;;8.30;99.90;;;;;;5110151;28;20019;-44
2021/11/14 00:17:18;;;;;;;33.22;19.58;;;8.40;99.90;;;;;;5109602;28;20169;-46
2021/11/14 00:19:43;;;;;;;33.38;21.95;;;8.30;99.90;;;;;;5109822;28;20413;-44
2021/11/14 00:22:09;;;;;;;36.33;22.10;;;8.40;99.90;;;;;;5110126;28;20499;-44
2021/11/14 00:24:34;;;;;;;33.47;20.10;;;8.40;99.90;;;;;;5110324;28;20042;-45
2021/11/14 00:27:00;;;;;;;34.58;21.05;;;8.40;99.90;;;;;;5108039;28;20015;-45
2021/11/14 00:29:25;;;;;;;36.28;23.20;;;8.40;99.90;;;;;;5109964;28;20420;-44
2021/11/14 00:31:51;;;;;;;34.70;21.17;;;8.40;99.90;;;;;;5108859;28;20066;-44
2021/11/14 00:34:17;;;;;;;30.02;19.10;;;8.40;99.90;;;;;;5105224;28;20459;-45
2021/11/14 00:36:43;;;;;;;39.55;23.10;;;8.40;99.90;;;;;;5099370;28;20027;-44
2021/11/14 00:39:16;;;;;;;41.95;23.20;;;8.40;99.90;;;;;;5109195;28;20073;-46
2021/11/14 00:41:43;;;;;;;42.33;24.45;;;8.40;99.90;;;;;;5108666;28;20052;-44
2021/11/14 00:44:08;;;;;;;32.28;20.55;;;8.40;99.90;;;;;;5110023;28;20026;-44
2021/11/14 00:46:34;;;;;;;35.70;22.42;;;8.40;99.90;;;;;;5109924;28;20102;-45
2021/11/14 00:49:00;;;;;;;36.10;21.38;;;8.40;99.90;;;;;;5107626;28;20478;-46
2021/11/14 00:51:29;;;;;;;36.40;22.63;;;8.40;99.90;;;;;;5109433;28;20123;-45
2021/11/14 00:54:00;;;;;;;35.72;21.33;;;8.40;99.90;;;;;;5109669;28;20389;-45
2021/11/14 00:56:26;;;;;;;;;;;8.40;99.90;;;;;;5109943;28;20169;-48
2021/11/14 00:58:51;;;;;;;40.50;22.88;;;8.40;99.90;;;;;;5108722;28;19962;-45
2021/11/14 01:01:17;;;;;;;38.60;23.00;;;8.30;99.90;;;;;;5109308;28;20114;-45
2021/11/14 01:03:43;;;;;;;37.15;21.70;;;8.40;99.90;;;;;;5107781;28;20389;-45
2021/11/14 01:06:09;;;;;;;38.33;23.25;;;8.40;99.90;;;;;;5097068;28;20026;-51
2021/11/14 01:08:34;;;;;;;41.20;26.08;;;8.40;99.90;;;;;;5105634;28;20032;-44
2021/11/14 01:11:04;;;;;;;41.08;23.13;;;8.40;99.90;;;;;;5108899;28;20034;-47
2021/11/14 01:13:34;;;;;;;42.53;24.98;;;8.40;99.90;;;;;;5109028;28;20545;-43
2021/11/14 01:16:01;;;;;;;40.30;22.58;;;8.40;99.90;;;;;;5109235;28;20226;-47
2021/11/14 01:18:27;;;;;;;42.67;24.08;;;8.40;99.90;;;;;;5100969;28;20027;-46
2021/11/14 01:20:57;;;;;;;39.83;24.25;;;8.40;99.90;;;;;;5098586;28;20059;-45
2021/11/14 01:23:23;;;;;;;42.38;23.05;;;8.40;99.90;;;;;;5109161;28;20509;-48
2021/11/14 01:25:49;;;;;;;44.20;26.00;;;8.40;99.90;;;;;;5109066;28;20108;-44
2021/11/14 01:28:17;;;;;;;50.63;25.83;;;8.40;99.90;;;;;;5108400;28;20042;-44
2021/11/14 01:30:45;;;;;;;43.75;25.60;;;8.40;99.90;;;;;;5109093;28;20016;-45
2021/11/14 01:33:14;;;;;;;43.97;24.42;;;8.40;99.90;;;;;;5108964;28;20019;-45
2021/11/14 01:35:40;;;;;;;41.50;23.42;;;8.40;99.90;;;;;;5108993;28;20285;-45
2021/11/14 01:38:06;;;;;;;40.67;22.73;;;8.40;99.90;;;;;;5107147;28;20028;-44
2021/11/14 01:40:44;;;;;;;38.08;23.25;;;8.40;99.90;;;;;;5108995;28;20039;-45
2021/11/14 01:43:12;;;;;;;41.92;23.48;;;8.40;99.90;;;;;;5107629;28;20125;-46
2021/11/14 01:45:38;;;;;;;44.40;24.70;;;8.40;99.90;;;;;;5108631;28;20500;-44
2021/11/14 01:48:05;;;;;;;51.25;26.70;;;8.40;99.90;;;;;;5103823;28;20024;-44
2021/11/14 01:50:32;;;;;;;36.33;20.95;;;8.40;99.90;;;;;;5095392;28;20035;-47
2021/11/14 01:52:59;;;;;;;41.80;24.80;;;8.40;99.90;;;;;;5068073;28;20058;-45
2021/11/14 01:55:27;;;;;;;44.30;23.13;;;8.40;99.90;;;;;;5068348;28;20085;-43
2021/11/14 01:57:54;;;;;;;50.78;28.17;;;8.40;99.90;;;;;;5067454;28;20146;-44
2021/11/14 02:00:31;;;;;;;51.75;31.33;;;8.40;99.90;;;;;;5067745;28;20111;-44
2021/11/14 02:02:57;;;;;;;49.38;27.83;;;8.40;99.90;;;;;;5068202;28;20458;-46
2021/11/14 02:05:25;;;;;;;50.95;28.92;;;8.30;99.90;;;;;;5068013;28;20029;-44
2021/11/14 02:07:53;;;;;;;54.22;30.80;;;8.30;99.90;;;;;;5067764;28;20017;-45
2021/11/14 02:10:20;;;;;;;54.53;30.13;;;8.30;99.90;;;;;;5068448;28;20394;-44
2021/11/14 02:12:46;;;;;;;49.55;29.52;;;8.20;99.90;;;;;;5068358;28;20332;-44
2021/11/14 02:15:11;;;;;;;54.35;31.45;;;8.20;99.90;;;;;;5066818;28;20115;-44
2021/11/14 02:17:37;;;;;;;53.50;29.42;;;8.20;99.90;;;;;;5067539;28;20032;-46
2021/11/14 02:20:05;;;;;;;55.40;29.40;;;8.20;99.90;;;;;;5094895;28;20031;-45
2021/11/14 02:22:30;;;;;;;61.47;33.03;;;8.10;99.90;;;;;;5107172;28;20024;-44
2021/11/14 02:24:56;;;;;;;53.53;30.48;;;8.10;99.90;;;;;;5112617;28;20028;-45
2021/11/14 02:27:22;;;;;;;58.80;32.90;;;8.10;99.90;;;;;;5111779;28;20063;-45
2021/11/14 02:29:47;;;;;;;60.15;34.47;;;8.10;99.90;;;;;;5112611;28;20031;-44
2021/11/14 02:32:13;;;;;;;56.42;32.90;;;8.10;99.90;;;;;;5112792;28;20023;-44
2021/11/14 02:34:39;;;;;;;56.65;31.85;;;8.10;99.90;;;;;;5112147;28;20059;-46
2021/11/14 02:37:04;;;;;;;59.30;33.60;;;8.10;99.90;;;;;;5112115;28;20023;-45
2021/11/14 02:39:30;;;;;;;55.60;31.38;;;8.10;99.90;;;;;;5112108;28;20080;-44
2021/11/14 02:41:56;;;;;;;66.13;34.08;;;8.00;99.90;;;;;;5112059;28;20488;-45
2021/11/14 02:44:21;;;;;;;54.55;30.95;;;8.00;99.90;;;;;;5111996;28;20568;-43
2021/11/14 02:46:47;;;;;;;62.90;33.40;;;8.00;99.90;;;;;;5111931;28;20023;-43
2021/11/14 02:49:12;;;;;;;54.83;31.23;;;8.00;99.90;;;;;;5103217;28;20123;-44
2021/11/14 02:51:38;;;;;;;54.70;30.30;;;8.00;99.90;;;;;;5084999;28;20019;-44
2021/11/14 02:54:05;;;;;;;54.83;31.98;;;8.10;99.90;;;;;;5111718;28;20080;-44
2021/11/14 02:56:31;;;;;;;56.88;31.40;;;8.00;99.90;;;;;;5110385;28;20037;-44
2021/11/14 02:58:57;;;;;;;63.22;32.65;;;8.10;99.90;;;;;;5111113;28;20047;-46
2021/11/14 03:01:28;;;;;;;62.60;34.25;;;8.10;99.90;;;;;;5110391;28;20019;-44
2021/11/14 03:03:55;;;;;;;65.40;35.17;;;8.10;99.90;;;;;;5110141;28;20023;-44
2021/11/14 03:06:23;;;;;;;67.22;35.25;;;8.10;99.90;;;;;;5111571;28;20023;-44
2021/11/14 03:08:49;;;;;;;61.10;34.65;;;8.00;99.90;;;;;;5110920;28;20578;-46
2021/11/14 03:11:15;;;;;;;63.60;34.75;;;8.10;99.90;;;;;;5111602;28;20031;-44
2021/11/14 03:13:42;;;;;;;60.90;33.35;;;8.10;99.90;;;;;;5111510;28;20011;-47
2021/11/14 03:16:09;;;;;;;75.20;38.45;;;8.10;99.90;;;;;;5111774;28;20027;-44
2021/11/14 03:18:35;;;;;;;67.85;37.05;;;8.00;99.90;;;;;;5103401;28;20485;-45
2021/11/14 03:21:02;;;;;;;61.42;35.67;;;8.10;99.90;;;;;;5103417;28;20062;-46
2021/11/14 03:23:29;;;;;;;62.25;35.22;;;8.10;99.90;;;;;;5110438;28;20262;-45
2021/11/14 03:25:56;;;;;;;62.88;35.85;;;8.10;99.90;;;;;;5111620;28;20020;-44
2021/11/14 03:28:24;;;;;;;71.20;36.33;;;8.10;99.90;;;;;;5110704;28;20054;-45
2021/11/14 03:30:52;;;;;;;66.47;37.00;;;8.10;99.90;;;;;;5109738;28;20493;-44
2021/11/14 03:33:18;;;;;;;61.15;37.42;;;8.10;99.90;;;;;;5109209;28;20331;-43
2021/11/14 03:35:55;;;;;;;56.58;35.13;;;8.10;99.90;;;;;;5111056;28;20036;-45
2021/11/14 03:38:24;;;;;;;62.22;35.58;;;8.10;99.90;;;;;;5110369;28;20106;-44
2021/11/14 03:40:51;;;;;;;63.85;35.90;;;8.10;99.90;;;;;;5110903;28;20072;-44
2021/11/14 03:43:16;;;;;;;55.30;34.60;;;8.10;99.90;;;;;;5110969;28;20030;-45
2021/11/14 03:45:42;;;;;;;65.40;37.60;;;8.10;99.90;;;;;;5110930;28;20020;-44
2021/11/14 03:48:08;;;;;;;58.15;34.72;;;8.10;99.90;;;;;;5106072;28;20028;-46
2021/11/14 03:50:34;;;;;;;63.50;35.67;;;8.10;99.90;;;;;;5098940;28;20104;-46
2021/11/14 03:53:01;;;;;;;59.63;33.58;;;8.10;99.90;;;;;;5110922;28;20051;-44
2021/11/14 03:55:27;;;;;;;66.78;38.67;;;8.10;99.90;;;;;;5110952;28;20496;-45
2021/11/14 03:57:53;;;;;;;61.92;33.83;;;8.10;99.90;;;;;;5110197;28;20051;-45
2021/11/14 04:00:25;;;;;;;54.50;31.25;;;8.10;99.90;;;;;;5110624;28;20149;-46
2021/11/14 04:02:54;;;;;;;57.92;32.83;;;8.10;99.90;;;;;;5110408;28;20553;-45
2021/11/14 04:05:20;;;;;;;56.20;32.22;;;8.10;99.90;;;;;;5110306;28;20020;-45
2021/11/14 04:07:46;;;;;;;63.67;35.33;;;8.10;99.90;;;;;;5108806;28;20020;-44
2021/11/14 04:10:13;;;;;;;52.28;31.10;;;8.00;99.90;;;;;;5109258;28;20207;-45
2021/11/14 04:12:39;;;;;;;52.35;30.02;;;8.00;99.90;;;;;;5110436;28;20550;-44
2021/11/14 04:15:11;;;;;;;59.13;32.15;;;8.10;99.90;;;;;;5110442;28;20669;-44
2021/11/14 04:17:37;;;;;;;53.45;31.67;;;8.00;99.90;;;;;;5109601;28;20481;-45
2021/11/14 04:20:04;;;;;;;58.45;31.92;;;8.00;99.90;;;;;;5097201;28;20024;-45
2021/11/14 04:22:30;;;;;;;47.30;29.05;;;8.00;99.90;;;;;;5106504;28;20074;-44
2021/11/14 04:24:55;;;;;;;48.35;29.30;;;8.00;99.90;;;;;;5110325;28;20431;-44
2021/11/14 04:27:21;;;;;;;50.85;29.60;;;8.00;99.90;;;;;;5109921;28;20111;-45
2021/11/14 04:29:47;;;;;;;48.47;28.27;;;8.00;99.90;;;;;;5110584;28;20099;-46
2021/11/14 04:32:12;;;;;;;49.17;30.08;;;8.00;99.90;;;;;;5110262;28;20389;-45
2021/11/14 04:34:40;;;;;;;48.53;28.77;;;8.00;99.90;;;;;;5109805;28;20098;-46
2021/11/14 04:37:06;;;;;;;48.85;27.20;;;7.90;99.90;;;;;;5109257;28;20070;-45
2021/11/14 04:39:31;;;;;;;44.30;26.55;;;8.00;99.90;;;;;;5109806;28;20473;-45
2021/11/14 04:41:57;;;;;;;42.00;26.88;;;8.00;99.90;;;;;;5109763;28;20028;-47
2021/11/14 04:44:24;;;;;;;44.13;26.40;;;8.00;99.90;;;;;;5096453;28;20057;-44
2021/11/14 04:46:50;;;;;;;49.83;27.15;;;8.00;99.90;;;;;;5088932;28;20020;-45
2021/11/14 04:49:19;;;;;;;52.17;30.60;;;8.00;99.90;;;;;;5093003;28;20031;-44
2021/11/14 04:51:45;;;;;;;48.13;29.05;;;8.00;99.90;;;;;;5100936;28;20419;-45
2021/11/14 04:54:11;;;;;;;45.90;28.42;;;8.00;99.90;;;;;;5109743;28;20020;-44
2021/11/14 04:56:36;;;;;;;46.03;27.90;;;8.00;99.90;;;;;;5096880;28;20031;-48
2021/11/14 04:59:02;;;;;;;48.70;29.27;;;8.00;99.90;;;;;;5088238;28;20031;-44
2021/11/14 05:01:27;;;;;;;44.15;26.08;;;8.00;99.90;;;;;;5086734;28;20032;-44
2021/11/14 05:03:53;;;;;;;50.00;27.80;;;8.00;99.90;;;;;;5088605;28;20027;-43
2021/11/14 05:06:19;;;;;;;53.08;31.30;;;8.00;99.90;;;;;;5088726;28;20024;-44
2021/11/14 05:08:44;;;;;;;44.20;27.15;;;8.00;99.90;;;;;;5087511;28;20510;-44
2021/11/14 05:11:10;;;;;;;44.88;27.33;;;8.00;99.90;;;;;;5087817;28;20020;-45
2021/11/14 05:13:35;;;;;;;44.47;26.33;;;8.00;99.90;;;;;;5088146;28;20043;-45
2021/11/14 05:16:01;;;;;;;45.97;28.70;;;8.00;99.90;;;;;;5089041;28;20546;-44
2021/11/14 05:18:26;;;;;;;51.67;29.27;;;8.00;99.90;;;;;;5082304;28;20095;-44
2021/11/14 05:20:52;;;;;;;49.78;27.92;;;8.00;99.90;;;;;;5099312;28;20118;-44
2021/11/14 05:23:18;;;;;;;43.67;27.95;;;8.00;99.90;;;;;;5109246;28;20024;-44
2021/11/14 05:25:44;;;;;;;40.83;25.13;;;8.00;99.90;;;;;;5109028;28;20495;-44
2021/11/14 05:28:11;;;;;;;43.40;27.80;;;8.00;99.90;;;;;;5108372;28;20019;-44
2021/11/14 05:30:36;;;;;;;51.40;28.52;;;8.00;99.90;;;;;;5108958;28;20043;-44
2021/11/14 05:33:03;;;;;;;48.00;28.38;;;8.00;99.90;;;;;;5108943;28;20451;-45
2021/11/14 05:35:29;;;;;;;46.00;27.30;;;8.00;99.90;;;;;;5108684;28;20019;-44
2021/11/14 05:37:54;;;;;;;45.80;27.08;;;8.00;99.90;;;;;;5108197;28;20031;-44
2021/11/14 05:40:20;;;;;;;46.38;28.30;;;8.00;99.90;;;;;;5108833;28;20031;-44
2021/11/14 05:42:45;;;;;;;46.25;28.13;;;8.00;99.90;;;;;;5108966;28;20418;-44
2021/11/14 05:45:11;;;;;;;47.08;28.25;;;8.00;99.90;;;;;;5109229;28;20024;-44
2021/11/14 05:47:37;;;;;;;48.22;29.17;;;7.90;99.90;;;;;;5108207;28;20076;-45
2021/11/14 05:50:05;;;;;;;48.05;28.63;;;8.00;99.90;;;;;;5098728;28;20023;-44
2021/11/14 05:52:31;;;;;;;50.50;29.73;;;7.90;99.90;;;;;;5105491;28;20024;-44
2021/11/14 05:54:56;;;;;;;48.30;27.80;;;8.00;99.90;;;;;;5107609;28;20107;-45
2021/11/14 05:57:22;;;;;;;44.70;28.35;;;8.00;99.90;;;;;;5112464;27;20031;-44
2021/11/14 05:59:56;;;;;;;44.30;27.23;;;7.90;99.90;;;;;;5112908;27;20039;-44
2021/11/14 06:02:37;;;;;;;52.50;29.92;;;8.00;99.90;;;;;;5113270;28;20121;-47
2021/11/14 06:07:30;;;;;;;48.05;30.02;;;7.90;99.90;;;;;;5112373;28;20157;-45
2021/11/14 06:09:57;;;;;;;51.38;30.58;;;7.90;99.90;;;;;;5112600;28;20033;-44
2021/11/14 06:12:23;;;;;;;48.53;29.55;;;7.90;99.90;;;;;;5112636;28;20405;-46
2021/11/14 06:14:50;;;;;;;50.30;29.92;;;7.90;99.90;;;;;;5112762;28;20027;-45
2021/11/14 06:17:17;;;;;;;44.78;28.40;;;7.90;99.90;;;;;;5112006;28;20457;-45
2021/11/14 06:19:43;;;;;;;45.22;27.05;;;7.90;99.90;;;;;;5104518;28;20461;-45
2021/11/14 06:22:08;;;;;;;50.45;29.08;;;7.90;99.90;;;;;;5105782;28;20062;-45
2021/11/14 06:24:34;;;;;;;47.03;28.60;;;7.90;99.90;;;;;;5112462;28;20464;-44
2021/11/14 06:26:59;;;;;;;46.47;27.63;;;7.90;99.90;;;;;;5111672;27;20084;-44
2021/11/14 06:29:25;;;;;;;51.22;30.00;;;7.90;99.90;;;;;;5112314;28;20036;-44
2021/11/14 06:31:50;;;;;;;48.08;28.83;;;7.90;99.90;;;;;;5112129;28;20042;-45
2021/11/14 06:34:16;;;;;;;46.13;28.23;;;7.90;99.90;;;;;;5111991;28;20032;-44
2021/11/14 06:36:41;;;;;;;59.03;32.60;;;7.90;99.90;;;;;;5112173;28;20024;-46
2021/11/14 06:39:07;;;;;;;52.03;31.23;;;7.90;99.90;;;;;;5111761;28;20092;-46
2021/11/14 06:41:32;;;;;;;52.08;30.38;;;7.90;99.90;;;;;;5112069;28;20031;-44
2021/11/14 06:43:58;;;;;;;51.75;30.63;;;7.90;99.90;;;;;;5112610;28;20096;-50
2021/11/14 06:46:23;;;;;;;47.53;28.33;;;7.90;99.90;;;;;;5112444;28;20211;-44
2021/11/14 06:48:49;;;;;;;53.53;30.70;;;7.90;99.90;;;;;;5106524;28;20646;-45
2021/11/14 06:51:14;;;;;;;63.90;31.15;;;7.90;99.90;;;;;;5103596;27;20031;-45
2021/11/14 06:53:40;;;;;;;47.72;28.88;;;7.90;99.90;;;;;;5112108;28;20186;-46
2021/11/14 06:56:05;;;;;;;50.13;29.15;;;7.90;99.90;;;;;;5111928;28;20258;-44
2021/11/14 06:58:31;;;;;;;48.08;28.95;;;7.90;99.90;;;;;;5111302;28;20458;-45
2021/11/14 07:00:56;;;;;;;56.00;30.70;;;7.90;99.90;;;;;;5109976;28;20515;-44
2021/11/14 07:03:22;;;;;;;55.72;31.08;;;7.90;99.90;;;;;;5111617;28;20024;-44
2021/11/14 07:05:47;;;;;;;47.80;28.42;;;7.90;99.90;;;;;;5110432;28;20537;-45
2021/11/14 07:08:14;;;;;;;47.30;28.13;;;7.90;99.90;;;;;;5110201;28;20032;-44
2021/11/14 07:10:40;;;;;;;48.58;28.00;;;7.90;99.90;;;;;;5110104;28;20108;-44
2021/11/14 07:13:06;;;;;;;50.70;29.83;;;8.00;99.90;;;;;;5111541;28;20051;-44
2021/11/14 07:15:31;;;;;;;46.85;28.55;;;8.00;99.90;;;;;;5111537;28;20441;-44
2021/11/14 07:17:57;;;;;;;44.08;26.92;;;7.90;99.90;;;;;;5108927;28;20035;-48
2021/11/14 07:20:22;;;;;;;43.00;25.88;;;8.00;99.90;;;;;;5098777;28;20042;-45
2021/11/14 07:22:48;;;;;;;44.88;27.27;;;8.00;99.90;;;;;;5110342;28;20036;-47
2021/11/14 07:25:18;;;;;;;42.63;27.02;;;8.00;99.90;;;;;;5111166;28;20060;-44
2021/11/14 07:27:45;;;;;;;51.03;28.15;;;8.00;99.90;;;;;;5110602;28;20019;-45
2021/11/14 07:30:12;;;;;;;56.15;30.58;;;8.00;99.90;;;;;;5109893;28;20141;-46
2021/11/14 07:32:40;;;;;;;50.97;28.55;;;8.00;99.90;;;;;;5111221;28;20023;-45
2021/11/14 07:35:11;;;;;;;52.08;28.15;;;8.00;99.90;;;;;;5110921;28;20024;-45
2021/11/14 07:37:38;;;;;;;43.72;26.05;;;8.00;99.90;;;;;;5110462;28;20120;-45
2021/11/14 07:40:06;;;;;;;44.50;26.30;;;8.00;99.90;;;;;;5094011;28;20027;-47
2021/11/14 07:42:32;;;;;;;47.30;25.00;;;8.00;99.90;;;;;;5087435;28;20023;-46
2021/11/14 07:44:57;;;;;;;39.67;25.50;;;8.10;99.90;;;;;;5089011;28;20031;-47
2021/11/14 07:47:23;;;;;;;52.13;29.02;;;8.10;99.90;;;;;;5090461;28;20698;-45
2021/11/14 07:49:48;;;;;;;46.40;29.05;;;8.10;99.90;;;;;;5092874;28;20028;-46
2021/11/14 07:52:14;;;;;;;48.72;26.67;;;8.10;99.90;;;;;;5105306;28;20076;-45
2021/11/14 07:54:39;;;;;;;41.72;24.55;;;8.10;99.90;;;;;;5109971;28;20066;-46
2021/11/14 07:57:05;;;;;;;53.92;31.23;;;8.10;99.90;;;;;;5110518;27;20102;-44
2021/11/14 07:59:31;;;;;;;52.53;32.17;;;8.10;99.90;;;;;;5111307;28;20041;-44
2021/11/14 08:01:56;;;;;;;50.60;29.75;;;8.10;99.90;;;;;;5109742;28;20027;-44
2021/11/14 08:04:22;;;;;;;54.10;31.40;;;8.00;99.90;;;;;;5111308;28;20028;-44
2021/11/14 08:06:48;;;;;;;52.33;32.17;;;8.00;99.90;;;;;;5110737;28;20100;-43
2021/11/14 08:09:13;;;;;;;52.90;31.15;;;8.00;99.90;;;;;;5109204;28;20020;-44
2021/11/14 08:11:39;;;;;;;60.33;31.20;;;8.00;99.90;;;;;;5111146;28;20024;-44
2021/11/14 08:14:04;;;;;;;53.20;30.63;;;8.00;99.90;;;;;;5111132;28;20024;-44
2021/11/14 08:16:30;;;;;;;48.40;29.48;;;8.00;99.90;;;;;;5111192;28;20362;-44
2021/11/14 08:18:55;;;;;;;53.45;30.05;;;8.00;99.90;;;;;;5103831;28;20561;-43
2021/11/14 08:21:20;;;;;;;52.53;30.42;;;8.00;99.90;;;;;;5102353;28;20732;-44
2021/11/14 08:23:46;;;;;;;52.40;30.92;;;8.10;99.90;;;;;;5110826;28;20035;-44
2021/11/14 08:26:11;;;;;;;50.25;29.10;;;8.10;99.90;;;;;;5111022;28;20388;-44
2021/11/14 08:28:38;;;;;;;45.67;27.13;;;8.10;99.90;;;;;;5110041;28;20027;-44
2021/11/14 08:31:04;;;;;;;50.00;29.35;;;8.10;99.90;;;;;;5110900;28;20380;-44
2021/11/14 08:33:31;;;;;;;54.33;29.08;;;8.10;99.90;;;;;;5109087;28;20103;-43
2021/11/14 08:35:57;;;;;;;60.22;32.25;;;8.10;99.90;;;;;;5110911;28;20027;-45
2021/11/14 08:38:24;;;;;;;48.45;29.08;;;8.10;99.90;;;;;;5108454;28;20457;-44
2021/11/14 08:40:49;;;;;;;57.67;33.50;;;8.10;99.90;;;;;;5110417;28;20525;-45
2021/11/14 08:43:15;;;;;;;54.78;31.58;;;8.10;99.90;;;;;;5110537;28;20024;-46
2021/11/14 08:45:42;;;;;;;52.97;29.42;;;8.10;99.90;;;;;;5103049;28;20036;-44
2021/11/14 08:48:08;;;;;;;49.38;27.80;;;8.10;99.90;;;;;;5088322;28;20027;-44
2021/11/14 08:50:34;;;;;;;50.92;28.92;;;8.20;99.90;;;;;;5097135;28;20031;-45
2021/11/14 08:53:01;;;;;;;51.08;28.10;;;8.20;99.90;;;;;;5088697;28;20062;-44
2021/11/14 08:55:28;;;;;;;49.80;29.77;;;8.20;99.90;;;;;;5090032;28;20050;-44
2021/11/14 08:57:55;;;;;;;47.83;27.95;;;8.20;99.90;;;;;;5089484;28;20070;-45
2021/11/14 09:00:26;;;;;;;51.30;29.20;;;8.20;99.90;;;;;;5089812;28;20025;-44
2021/11/14 09:02:54;;;;;;;52.33;29.88;;;8.20;99.90;;;;;;5089954;28;20016;-45
2021/11/14 09:05:22;;;;;;;50.92;30.98;;;8.20;99.90;;;;;;5088081;28;20032;-47
2021/11/14 09:07:48;;;;;;;56.92;32.65;;;8.20;99.90;;;;;;5087822;28;20106;-45
2021/11/14 09:10:14;;;;;;;47.28;29.17;;;8.20;99.90;;;;;;5088381;28;20039;-43
2021/11/14 09:12:40;;;;;;;52.60;31.40;;;8.30;99.90;;;;;;5086257;28;20397;-43
2021/11/14 09:15:06;;;;;;;54.13;30.98;;;8.20;99.90;;;;;;5086948;28;20036;-44
2021/11/14 09:17:31;;;;;;;55.88;31.90;;;8.30;99.90;;;;;;5086299;28;20031;-45
2021/11/14 09:19:57;;;;;;;54.03;30.48;;;8.30;99.90;;;;;;5092290;28;20028;-45
2021/11/14 09:22:22;;;;;;;57.80;30.80;;;8.30;99.90;;;;;;5104815;28;20442;-44
2021/11/14 09:24:48;;;;;;;54.03;31.20;;;8.30;99.90;;;;;;5109835;28;20024;-45
2021/11/14 09:27:14;;;;;;;54.95;30.90;;;8.30;99.90;;;;;;5108960;28;20031;-44
2021/11/14 09:29:39;;;;;;;53.95;30.50;;;8.30;99.90;;;;;;5109531;28;20035;-44
2021/11/14 09:32:06;;;;;;;57.10;32.35;;;8.30;99.90;;;;;;5109079;28;20028;-43
2021/11/14 09:34:32;;;;;;;54.85;31.23;;;8.30;99.90;;;;;;5108498;28;20031;-45
2021/11/14 09:36:58;;;;;;;50.85;30.55;;;8.30;99.90;;;;;;5108519;28;20028;-43
2021/11/14 09:39:23;;;;;;;57.55;32.08;;;8.30;99.90;;;;;;5108470;28;20173;-44
2021/11/14 09:41:51;;;;;;;62.92;33.05;;;8.40;99.90;;;;;;5109571;28;20054;-47
2021/11/14 09:44:18;;;;;;;53.20;30.70;;;8.40;99.90;;;;;;5109569;28;20023;-44
2021/11/14 09:46:56;;;;;;;59.10;32.97;;;8.30;99.90;;;;;;5108579;28;20030;-44
2021/11/14 09:49:28;;;;;;;56.75;32.15;;;8.40;99.90;;;;;;5103967;28;20027;-46
2021/11/14 09:51:55;;;;;;;56.80;32.65;;;8.40;99.90;;;;;;5099982;28;20104;-45
2021/11/14 09:54:23;;;;;;;59.88;31.48;;;8.30;99.90;;;;;;5088868;28;20035;-45
2021/11/14 09:56:49;;;;;;;61.15;32.65;;;8.40;99.90;;;;;;5087233;28;20042;-45
2021/11/14 09:59:15;;;;;;;55.10;31.83;;;8.40;99.90;;;;;;5086686;28;20614;-45
2021/11/14 10:01:41;;;;;;;57.00;29.73;;;8.40;99.90;;;;;;5087171;28;20040;-45
2021/11/14 10:04:10;;;;;;;56.15;31.77;;;8.40;99.90;;;;;;5087218;28;20068;-45
2021/11/14 10:06:35;;;;;;;54.70;32.08;;;8.40;99.90;;;;;;5087397;28;20405;-44
2021/11/14 10:09:03;;;;;;;57.78;32.72;;;8.40;99.90;;;;;;5086688;28;20021;-44
2021/11/14 10:11:32;;;;;;;59.60;34.63;;;8.40;99.90;;;;;;5087274;28;20048;-46
2021/11/14 10:13:58;;;;;;;59.65;31.58;;;8.50;99.90;;;;;;5085768;28;20493;-47
2021/11/14 10:16:27;;;;;;;52.28;31.08;;;8.50;99.90;;;;;;5086924;28;20029;-44
2021/11/14 10:18:56;;;;;;;64.75;35.33;;;8.50;99.90;;;;;;5085111;28;20374;-45
2021/11/14 10:21:28;;;;;;;53.67;30.25;;;8.40;99.90;;;;;;5099346;28;20377;-45
2021/11/14 10:23:53;;;;;;;51.22;29.40;;;8.40;99.90;;;;;;5103013;28;20117;-44
2021/11/14 10:26:19;;;;;;;52.63;30.20;;;8.40;99.90;;;;;;5086174;28;20485;-45
2021/11/14 10:28:49;;;;;;;55.05;30.35;;;8.40;99.90;;;;;;5087160;28;20393;-44
2021/11/14 10:31:22;;;;;;;50.83;29.00;;;8.40;99.90;;;;;;5087712;28;20020;-45
2021/11/14 10:33:50;;;;;;;57.92;30.88;;;8.40;99.90;;;;;;5086980;28;20024;-45
2021/11/14 10:36:15;;;;;;;51.55;31.60;;;8.40;99.90;;;;;;5085925;28;20436;-44
2021/11/14 10:38:41;;;;;;;50.17;30.40;;;8.40;99.90;;;;;;5086806;28;20040;-46
2021/11/14 10:41:10;;;;;;;51.13;29.80;;;8.40;99.90;;;;;;5085670;28;20421;-45
2021/11/14 10:43:40;;;;;;;56.30;30.02;;;8.50;99.90;;;;;;5089693;28;20534;-45
2021/11/14 10:46:14;;;;;;;56.05;31.67;;;8.50;99.90;;;;;;5082617;28;20163;-45
2021/11/14 10:48:40;;;;;;;57.58;31.60;;;8.50;99.90;;;;;;5091299;28;20024;-45
2021/11/14 10:51:07;;;;;;;51.85;29.60;;;8.40;99.90;;;;;;5099899;28;20028;-44
2021/11/14 10:53:33;;;;;;;50.42;30.13;;;8.40;99.90;;;;;;5108867;28;20023;-44
2021/11/14 10:56:06;;;;;;;46.95;27.27;;;8.40;99.90;;;;;;5107596;28;20024;-44
2021/11/14 10:58:32;;;;;;;46.38;27.13;;;8.50;99.90;;;;;;5108883;28;20509;-44
2021/11/14 11:01:02;;;;;;;52.35;28.65;;;8.50;99.90;;;;;;5109204;28;20038;-45
2021/11/14 11:03:35;;;;;;;49.55;27.50;;;8.50;99.90;;;;;;5109785;28;20020;-45
2021/11/14 11:06:02;;;;;;;50.05;27.65;;;8.50;99.90;;;;;;5109344;28;20300;-45
2021/11/14 11:08:28;;;;;;;51.83;30.13;;;8.50;99.90;;;;;;5108666;28;20023;-44
2021/11/14 11:11:00;;;;;;;51.90;27.63;;;8.60;99.90;;;;;;5109193;28;20246;-45
2021/11/14 11:13:32;;;;;;;53.00;29.63;;;8.60;99.90;;;;;;5109207;28;20106;-44
2021/11/14 11:16:02;;;;;;;45.30;27.60;;;8.60;99.90;;;;;;5108898;28;20408;-44
2021/11/14 11:18:28;;;;;;;42.60;26.50;;;8.60;99.90;;;;;;5104677;28;20032;-44
2021/11/14 11:20:56;;;;;;;50.72;29.48;;;8.60;99.90;;;;;;5096647;28;20292;-47
2021/11/14 11:23:23;;;;;;;51.08;29.08;;;8.60;99.90;;;;;;5088448;28;20386;-44
2021/11/14 11:25:53;;;;;;;48.83;28.45;;;8.70;99.90;;;;;;5088154;28;20020;-44
2021/11/14 11:28:25;;;;;;;48.63;28.60;;;8.70;99.90;;;;;;5077368;28;20119;-46
2021/11/14 11:31:03;;;;;;;50.25;28.92;;;8.70;99.90;;;;;;5085876;28;20074;-43
2021/11/14 11:33:33;;;;;;;52.80;29.02;;;8.70;99.90;;;;;;5086378;28;20417;-44
2021/11/14 11:36:00;;;;;;;53.72;32.83;;;8.70;99.90;;;;;;5087003;28;20060;-44
2021/11/14 11:38:27;;;;;;;52.38;29.08;;;8.70;99.90;;;;;;5086043;28;20030;-44
2021/11/14 11:40:57;;;;;;;52.42;30.48;;;8.70;99.90;;;;;;5086693;28;20031;-45
2021/11/14 11:43:23;;;;;;;53.88;30.35;;;8.70;99.90;;;;;;5087442;28;20445;-44
2021/11/14 11:45:50;;;;;;;48.53;27.88;;;8.70;99.90;;;;;;5086821;28;20032;-43
2021/11/14 11:48:28;;;;;;;53.40;28.17;;;8.70;99.90;;;;;;5072302;28;20104;-45
2021/11/14 11:51:25;;;;;;;46.05;27.10;;;8.70;99.90;;;;;;5089736;28;20131;-44
2021/11/14 11:53:59;;;;;;;51.42;29.20;;;8.70;99.90;;;;;;5082695;28;20046;-43
2021/11/14 11:56:35;;;;;;;57.72;30.00;;;8.80;99.90;;;;;;5087216;28;20274;-44
2021/11/14 11:59:08;;;;;;;57.75;30.52;;;8.80;99.90;;;;;;5084764;28;20020;-44
2021/11/14 12:01:34;;;;;;;50.20;29.42;;;8.80;99.90;;;;;;5087116;28;20028;-45
2021/11/14 12:04:21;;;;;;;50.30;28.02;;;8.80;99.90;;;;;;5086693;28;20017;-44
2021/11/14 12:07:04;;;;;;;51.08;27.30;;;8.80;99.90;;;;;;5086884;28;20435;-44
2021/11/14 12:09:49;;;;;;;48.50;29.30;;;8.80;99.90;;;;;;5086749;28;20035;-45
2021/11/14 12:12:19;;;;;;;50.58;28.52;;;8.90;99.90;;;;;;5086648;28;20382;-45
2021/11/14 12:14:44;;;;;;;57.05;31.55;;;8.90;99.90;;;;;;5086222;28;20062;-44
2021/11/14 12:17:10;;;;;;;53.92;30.95;;;8.90;99.90;;;;;;5086085;28;20063;-45
2021/11/14 12:19:38;;;;;;;59.20;31.73;;;8.90;99.90;;;;;;5091039;28;20062;-44
2021/11/14 12:22:06;;;;;;;57.92;33.35;;;8.90;99.90;;;;;;5097694;28;20374;-44
2021/11/14 12:24:48;;;;;;;56.65;32.13;;;8.90;99.90;;;;;;5106865;28;20019;-46
2021/11/14 12:27:28;;;;;;;58.95;33.30;;;8.90;99.90;;;;;;5096150;28;20523;-47
2021/11/14 12:30:10;;;;;;;59.90;34.25;;;8.90;99.90;;;;;;5086160;28;20023;-45
2021/11/14 12:32:41;;;;;;;70.40;37.67;;;8.80;99.90;;;;;;5087814;28;20031;-44
2021/11/14 12:35:10;;;;;;;;;;;8.80;99.90;;;;;;5088235;28;20479;-44
2021/11/14 12:37:45;;;;;;;64.65;37.15;;;8.80;99.90;;;;;;5087094;28;19911;-44
2021/11/14 12:40:14;;;;;;;75.47;39.05;;;8.80;99.90;;;;;;5086236;28;20028;-43